PWSweather.com
Personal Weather Stations
Station Observations
719732
Ponferrada, PonferradaES 24411

PonferradaPonferradaES 24411

Lat: 42.5728, Lon: -6.6425

Elevation: 1676

Station Type: PCE-FWS 20 con garita Ambient Weather SRS100LX

www.meteo.spyfly.es

High Low Average
Temperature 96.6°F35.9°C 63.0°F17.2°C 75.0°F23.9°C
Dew Point 68.0°F20.0°C 54.1°F12.3°C 62.6°F17.0°C
Winds 15.9 mph 25.6 kmh Calm Calm 3.0 mph S4.8 kmh S
Wind Gusts 25.9 mph41.7 kmh -- 6.0 mph9.7 kmh
Humidity 92% 30% 69%
Pressure 30.04 in1017.3 mb 29.86 in1011.2 mb -
Precipitation 0.01 in0.3 mm - -
Hour Temp Dew Point Humidity Winds Wind Gusts Pressure Precip Precip Rate Daily Precip Total
12:00 AM 78.6°F25.9°C 65.0°F18.3°C 63% 1.6 mph E2.6 kmh E 3.1 mph5.0 kmh 30.01 in1016.3 mb 0.00 in0.0 mm 0.00 in0.0 mm 0.00 in0.0 mm
12:05 AM 78.4°F25.8°C 65.3°F18.5°C 64% Calm Calm 3.1 mph5.0 kmh 30.02 in1016.6 mb 0.00 in0.0 mm 0.00 in0.0 mm 0.00 in0.0 mm
12:10 AM 78.4°F25.8°C 65.3°F18.5°C 64% 1.6 mph N2.6 kmh N 2.2 mph3.5 kmh 30.01 in1016.3 mb 0.00 in0.0 mm 0.00 in0.0 mm 0.00 in0.0 mm
12:15 AM 78.3°F25.7°C 65.6°F18.7°C 65% Calm Calm 3.1 mph5.0 kmh 30.01 in1016.3 mb 0.00 in0.0 mm 0.00 in0.0 mm 0.00 in0.0 mm
12:25 AM 77.9°F25.5°C 65.7°F18.7°C 66% 3.1 mph N5.0 kmh N 4.5 mph7.2 kmh 30.00 in1015.9 mb 0.00 in0.0 mm 0.00 in0.0 mm 0.00 in0.0 mm
12:30 AM 77.7°F25.4°C 65.1°F18.4°C 65% 2.2 mph ENE3.5 kmh ENE 4.5 mph7.2 kmh 30.01 in1016.3 mb 0.00 in0.0 mm 0.00 in0.0 mm 0.00 in0.0 mm
12:35 AM 77.7°F25.4°C 65.1°F18.4°C 65% Calm Calm 4.5 mph7.2 kmh 30.01 in1016.3 mb 0.00 in0.0 mm 0.00 in0.0 mm 0.00 in0.0 mm
12:40 AM 77.7°F25.4°C 65.5°F18.6°C 66% 1.6 mph N2.6 kmh N 3.8 mph6.1 kmh 30.00 in1015.9 mb 0.00 in0.0 mm 0.00 in0.0 mm 0.00 in0.0 mm
12:45 AM 77.5°F25.3°C 64.9°F18.3°C 65% 1.6 mph E2.6 kmh E 8.3 mph13.4 kmh 30.01 in1016.3 mb 0.00 in0.0 mm 0.00 in0.0 mm 0.00 in0.0 mm
12:50 AM 77.7°F25.4°C 65.1°F18.4°C 65% 3.8 mph E6.1 kmh E 8.3 mph13.4 kmh 30.00 in1015.9 mb 0.00 in0.0 mm 0.00 in0.0 mm 0.00 in0.0 mm
12:55 AM 77.7°F25.4°C 65.1°F18.4°C 65% Calm Calm 5.4 mph8.7 kmh 30.01 in1016.3 mb 0.00 in0.0 mm 0.00 in0.0 mm 0.00 in0.0 mm
01:00 AM 77.7°F25.4°C 65.1°F18.4°C 65% 0.7 mph N1.1 kmh N 3.8 mph6.1 kmh 30.01 in1016.3 mb 0.00 in0.0 mm 0.00 in0.0 mm 0.00 in0.0 mm
01:05 AM 77.7°F25.4°C 65.1°F18.4°C 65% 0.7 mph NW1.1 kmh NW 1.6 mph2.6 kmh 30.01 in1016.3 mb 0.00 in0.0 mm 0.00 in0.0 mm 0.00 in0.0 mm
01:10 AM 77.4°F25.2°C 64.7°F18.2°C 65% 1.6 mph NW2.6 kmh NW 2.2 mph3.5 kmh 30.00 in1015.9 mb 0.00 in0.0 mm 0.00 in0.0 mm 0.00 in0.0 mm
01:15 AM 77.4°F25.2°C 64.7°F18.2°C 65% 1.6 mph N2.6 kmh N 4.5 mph7.2 kmh 30.00 in1015.9 mb 0.00 in0.0 mm 0.00 in0.0 mm 0.00 in0.0 mm
01:20 AM 77.2°F25.1°C 64.5°F18.1°C 65% 0.7 mph NNE1.1 kmh NNE 4.5 mph7.2 kmh 30.00 in1015.9 mb 0.00 in0.0 mm 0.00 in0.0 mm 0.00 in0.0 mm
01:25 AM 77.2°F25.1°C 64.1°F17.8°C 64% 2.2 mph E3.5 kmh E 3.1 mph5.0 kmh 29.99 in1015.6 mb 0.00 in0.0 mm 0.00 in0.0 mm 0.00 in0.0 mm
01:30 AM 77.2°F25.1°C 63.6°F17.6°C 63% 2.2 mph ENE3.5 kmh ENE 4.5 mph7.2 kmh 29.99 in1015.6 mb 0.00 in0.0 mm 0.00 in0.0 mm 0.00 in0.0 mm
01:35 AM 77.2°F25.1°C 63.6°F17.6°C 63% 2.2 mph ENE3.5 kmh ENE 4.5 mph7.2 kmh 29.99 in1015.6 mb 0.00 in0.0 mm 0.00 in0.0 mm 0.00 in0.0 mm
01:40 AM 77.0°F25.0°C 62.1°F16.7°C 60% 2.2 mph NNE3.5 kmh NNE 6.9 mph11.1 kmh 29.98 in1015.2 mb 0.00 in0.0 mm 0.00 in0.0 mm 0.00 in0.0 mm
01:50 AM 77.2°F25.1°C 61.8°F16.6°C 59% 0.7 mph SE1.1 kmh SE 3.8 mph6.1 kmh 29.98 in1015.2 mb 0.00 in0.0 mm 0.00 in0.0 mm 0.00 in0.0 mm
01:55 AM 77.2°F25.1°C 61.8°F16.6°C 59% 2.2 mph SE3.5 kmh SE 3.8 mph6.1 kmh 29.98 in1015.2 mb 0.00 in0.0 mm 0.00 in0.0 mm 0.00 in0.0 mm
02:00 AM 77.0°F25.0°C 63.0°F17.2°C 62% 1.6 mph ESE2.6 kmh ESE 3.8 mph6.1 kmh 29.98 in1015.2 mb 0.00 in0.0 mm 0.00 in0.0 mm 0.00 in0.0 mm
02:05 AM 76.6°F24.8°C 63.6°F17.6°C 64% 1.6 mph SE2.6 kmh SE 3.8 mph6.1 kmh 29.97 in1014.9 mb 0.00 in0.0 mm 0.00 in0.0 mm 0.00 in0.0 mm
02:10 AM 76.5°F24.7°C 63.4°F17.4°C 64% 0.7 mph S1.1 kmh S 3.1 mph5.0 kmh 29.97 in1014.9 mb 0.00 in0.0 mm 0.00 in0.0 mm 0.00 in0.0 mm
02:15 AM 75.9°F24.4°C 63.3°F17.4°C 65% 0.7 mph NW1.1 kmh NW 2.2 mph3.5 kmh 29.97 in1014.9 mb 0.00 in0.0 mm 0.00 in0.0 mm 0.00 in0.0 mm
02:20 AM 75.4°F24.1°C 63.7°F17.6°C 67% 2.2 mph NW3.5 kmh NW 2.2 mph3.5 kmh 29.97 in1014.9 mb 0.00 in0.0 mm 0.00 in0.0 mm 0.00 in0.0 mm
02:25 AM 74.5°F23.6°C 63.7°F17.6°C 69% Calm Calm 2.2 mph3.5 kmh 29.97 in1014.9 mb 0.00 in0.0 mm 0.00 in0.0 mm 0.00 in0.0 mm
02:30 AM 73.9°F23.3°C 63.6°F17.6°C 70% Calm Calm 2.2 mph3.5 kmh 29.97 in1014.9 mb 0.00 in0.0 mm 0.00 in0.0 mm 0.00 in0.0 mm
02:35 AM 73.6°F23.1°C 63.2°F17.3°C 70% 0.7 mph S1.1 kmh S 2.2 mph3.5 kmh 29.97 in1014.9 mb 0.00 in0.0 mm 0.00 in0.0 mm 0.00 in0.0 mm
02:40 AM 73.4°F23.0°C 63.5°F17.5°C 71% 0.7 mph SSE1.1 kmh SSE 2.2 mph3.5 kmh 29.97 in1014.9 mb 0.00 in0.0 mm 0.00 in0.0 mm 0.00 in0.0 mm
02:45 AM 73.0°F22.8°C 63.5°F17.5°C 72% Calm Calm 1.6 mph2.6 kmh 29.97 in1014.9 mb 0.00 in0.0 mm 0.00 in0.0 mm 0.00 in0.0 mm
02:50 AM 72.7°F22.6°C 63.2°F17.3°C 72% 1.6 mph ESE2.6 kmh ESE 3.1 mph5.0 kmh 29.96 in1014.6 mb 0.00 in0.0 mm 0.00 in0.0 mm 0.00 in0.0 mm
02:55 AM 72.5°F22.5°C 63.0°F17.2°C 72% 0.7 mph E1.1 kmh E 3.1 mph5.0 kmh 29.96 in1014.6 mb 0.00 in0.0 mm 0.00 in0.0 mm 0.00 in0.0 mm
03:00 AM 72.3°F22.4°C 63.2°F17.3°C 73% 0.7 mph ESE1.1 kmh ESE 3.1 mph5.0 kmh 29.96 in1014.6 mb 0.00 in0.0 mm 0.00 in0.0 mm 0.00 in0.0 mm
03:05 AM 72.3°F22.4°C 63.2°F17.3°C 73% 0.7 mph E1.1 kmh E 2.2 mph3.5 kmh 29.96 in1014.6 mb 0.00 in0.0 mm 0.00 in0.0 mm 0.00 in0.0 mm
03:10 AM 71.8°F22.1°C 63.1°F17.3°C 74% Calm Calm 2.2 mph3.5 kmh 29.96 in1014.6 mb 0.00 in0.0 mm 0.00 in0.0 mm 0.00 in0.0 mm
03:15 AM 71.2°F21.8°C 62.9°F17.2°C 75% Calm Calm 2.2 mph3.5 kmh 29.96 in1014.6 mb 0.00 in0.0 mm 0.00 in0.0 mm 0.00 in0.0 mm
03:20 AM 70.7°F21.5°C 62.8°F17.1°C 76% Calm Calm 1.6 mph2.6 kmh 29.96 in1014.6 mb 0.00 in0.0 mm 0.00 in0.0 mm 0.00 in0.0 mm
03:25 AM 70.7°F21.5°C 63.2°F17.3°C 77% Calm Calm 0.7 mph1.1 kmh 29.96 in1014.6 mb 0.00 in0.0 mm 0.00 in0.0 mm 0.00 in0.0 mm
03:30 AM 70.3°F21.3°C 62.8°F17.1°C 77% 0.7 mph WSW1.1 kmh WSW 1.6 mph2.6 kmh 29.97 in1014.9 mb 0.00 in0.0 mm 0.00 in0.0 mm 0.00 in0.0 mm
03:35 AM 70.2°F21.2°C 63.0°F17.2°C 78% 1.6 mph E2.6 kmh E 3.1 mph5.0 kmh 29.97 in1014.9 mb 0.00 in0.0 mm 0.00 in0.0 mm 0.00 in0.0 mm
03:40 AM 70.0°F21.1°C 63.2°F17.3°C 79% 1.6 mph ENE2.6 kmh ENE 3.1 mph5.0 kmh 29.96 in1014.6 mb 0.00 in0.0 mm 0.00 in0.0 mm 0.00 in0.0 mm
03:45 AM 69.6°F20.9°C 63.6°F17.6°C 81% 0.7 mph N1.1 kmh N 2.2 mph3.5 kmh 29.97 in1014.9 mb 0.00 in0.0 mm 0.00 in0.0 mm 0.00 in0.0 mm
03:50 AM 69.3°F20.7°C 63.6°F17.6°C 82% 3.1 mph ENE5.0 kmh ENE 3.8 mph6.1 kmh 29.98 in1015.2 mb 0.00 in0.0 mm 0.00 in0.0 mm 0.00 in0.0 mm
03:55 AM 69.3°F20.7°C 63.6°F17.6°C 82% 0.7 mph E1.1 kmh E 3.8 mph6.1 kmh 29.97 in1014.9 mb 0.00 in0.0 mm 0.00 in0.0 mm 0.00 in0.0 mm
04:00 AM 69.1°F20.6°C 63.7°F17.6°C 83% 0.7 mph E1.1 kmh E 3.1 mph5.0 kmh 29.97 in1014.9 mb 0.00 in0.0 mm 0.00 in0.0 mm 0.00 in0.0 mm
04:05 AM 68.9°F20.5°C 63.6°F17.6°C 83% 1.6 mph NE2.6 kmh NE 3.1 mph5.0 kmh 29.96 in1014.6 mb 0.00 in0.0 mm 0.00 in0.0 mm 0.00 in0.0 mm
04:15 AM 68.4°F20.2°C 63.4°F17.4°C 84% 3.1 mph NE5.0 kmh NE 3.8 mph6.1 kmh 29.97 in1014.9 mb 0.00 in0.0 mm 0.00 in0.0 mm 0.00 in0.0 mm
04:20 AM 68.2°F20.1°C 63.2°F17.3°C 84% 0.7 mph E1.1 kmh E 4.5 mph7.2 kmh 29.96 in1014.6 mb 0.00 in0.0 mm 0.00 in0.0 mm 0.00 in0.0 mm
04:25 AM 68.2°F20.1°C 63.2°F17.3°C 84% 0.7 mph NE1.1 kmh NE 4.5 mph7.2 kmh 29.96 in1014.6 mb 0.00 in0.0 mm 0.00 in0.0 mm 0.00 in0.0 mm
04:30 AM 68.2°F20.1°C 63.2°F17.3°C 84% 2.2 mph N3.5 kmh N 3.1 mph5.0 kmh 29.96 in1014.6 mb 0.00 in0.0 mm 0.00 in0.0 mm 0.00 in0.0 mm
04:35 AM 67.8°F19.9°C 63.2°F17.3°C 85% 1.6 mph N2.6 kmh N 3.1 mph5.0 kmh 29.96 in1014.6 mb 0.00 in0.0 mm 0.00 in0.0 mm 0.00 in0.0 mm
04:40 AM 67.8°F19.9°C 63.2°F17.3°C 85% 2.2 mph N3.5 kmh N 3.8 mph6.1 kmh 29.96 in1014.6 mb 0.00 in0.0 mm 0.00 in0.0 mm 0.00 in0.0 mm
04:45 AM 67.8°F19.9°C 62.8°F17.1°C 84% 0.7 mph NE1.1 kmh NE 3.8 mph6.1 kmh 29.97 in1014.9 mb 0.00 in0.0 mm 0.00 in0.0 mm 0.00 in0.0 mm
04:50 AM 68.2°F20.1°C 62.8°F17.1°C 83% 0.7 mph NE1.1 kmh NE 3.8 mph6.1 kmh 29.97 in1014.9 mb 0.00 in0.0 mm 0.00 in0.0 mm 0.00 in0.0 mm
04:55 AM 68.4°F20.2°C 62.7°F17.1°C 82% 1.6 mph ENE2.6 kmh ENE 3.1 mph5.0 kmh 29.97 in1014.9 mb 0.00 in0.0 mm 0.00 in0.0 mm 0.00 in0.0 mm
05:00 AM 68.5°F20.3°C 62.5°F16.9°C 81% 1.6 mph E2.6 kmh E 3.1 mph5.0 kmh 29.97 in1014.9 mb 0.00 in0.0 mm 0.00 in0.0 mm 0.00 in0.0 mm
05:05 AM 68.5°F20.3°C 62.5°F16.9°C 81% 1.6 mph SE2.6 kmh SE 2.2 mph3.5 kmh 29.97 in1014.9 mb 0.00 in0.0 mm 0.00 in0.0 mm 0.00 in0.0 mm
05:10 AM 68.4°F20.2°C 62.7°F17.1°C 82% Calm Calm 2.2 mph3.5 kmh 29.97 in1014.9 mb 0.00 in0.0 mm 0.00 in0.0 mm 0.00 in0.0 mm
05:15 AM 68.2°F20.1°C 62.8°F17.1°C 83% Calm Calm 2.2 mph3.5 kmh 29.97 in1014.9 mb 0.00 in0.0 mm 0.00 in0.0 mm 0.00 in0.0 mm
05:20 AM 67.8°F19.9°C 62.8°F17.1°C 84% Calm Calm 2.2 mph3.5 kmh 29.97 in1014.9 mb 0.00 in0.0 mm 0.00 in0.0 mm 0.00 in0.0 mm
05:25 AM 67.6°F19.8°C 62.7°F17.1°C 84% 2.2 mph E3.5 kmh E 3.1 mph5.0 kmh 29.97 in1014.9 mb 0.00 in0.0 mm 0.00 in0.0 mm 0.00 in0.0 mm
05:30 AM 67.5°F19.7°C 62.8°F17.1°C 85% 2.2 mph E3.5 kmh E 3.8 mph6.1 kmh 29.97 in1014.9 mb 0.00 in0.0 mm 0.00 in0.0 mm 0.00 in0.0 mm
05:35 AM 67.6°F19.8°C 62.7°F17.1°C 84% 1.6 mph ENE2.6 kmh ENE 5.4 mph8.7 kmh 29.98 in1015.2 mb 0.00 in0.0 mm 0.00 in0.0 mm 0.00 in0.0 mm
05:40 AM 68.0°F20.0°C 62.0°F16.7°C 81% Calm Calm 5.4 mph8.7 kmh 29.97 in1014.9 mb 0.00 in0.0 mm 0.00 in0.0 mm 0.00 in0.0 mm
05:45 AM 68.0°F20.0°C 61.6°F16.4°C 80% 1.6 mph NE2.6 kmh NE 3.1 mph5.0 kmh 29.98 in1015.2 mb 0.00 in0.0 mm 0.00 in0.0 mm 0.00 in0.0 mm
05:50 AM 67.6°F19.8°C 62.0°F16.7°C 82% 1.6 mph NNW2.6 kmh NNW 3.1 mph5.0 kmh 29.98 in1015.2 mb 0.00 in0.0 mm 0.00 in0.0 mm 0.00 in0.0 mm
05:55 AM 67.5°F19.7°C 61.8°F16.6°C 82% 0.7 mph N1.1 kmh N 3.1 mph5.0 kmh 29.98 in1015.2 mb 0.00 in0.0 mm 0.00 in0.0 mm 0.00 in0.0 mm
06:00 AM 67.1°F19.5°C 61.4°F16.3°C 82% 1.6 mph N2.6 kmh N 2.2 mph3.5 kmh 29.98 in1015.2 mb 0.00 in0.0 mm 0.00 in0.0 mm 0.00 in0.0 mm
06:05 AM 66.7°F19.3°C 61.8°F16.6°C 84% 0.7 mph NE1.1 kmh NE 2.2 mph3.5 kmh 29.98 in1015.2 mb 0.00 in0.0 mm 0.00 in0.0 mm 0.00 in0.0 mm
06:10 AM 66.4°F19.1°C 61.4°F16.3°C 84% 0.7 mph ESE1.1 kmh ESE 2.2 mph3.5 kmh 29.98 in1015.2 mb 0.00 in0.0 mm 0.00 in0.0 mm 0.00 in0.0 mm
06:15 AM 66.0°F18.9°C 61.7°F16.5°C 86% 0.7 mph ESE1.1 kmh ESE 2.2 mph3.5 kmh 29.98 in1015.2 mb 0.00 in0.0 mm 0.00 in0.0 mm 0.00 in0.0 mm
06:20 AM 65.8°F18.8°C 61.6°F16.4°C 86% 0.7 mph N1.1 kmh N 2.2 mph3.5 kmh 29.98 in1015.2 mb 0.00 in0.0 mm 0.00 in0.0 mm 0.00 in0.0 mm
06:25 AM 65.5°F18.6°C 61.5°F16.4°C 87% Calm Calm 2.2 mph3.5 kmh 29.98 in1015.2 mb 0.00 in0.0 mm 0.00 in0.0 mm 0.00 in0.0 mm
06:30 AM 65.5°F18.6°C 61.5°F16.4°C 87% 0.7 mph N1.1 kmh N 2.2 mph3.5 kmh 29.98 in1015.2 mb 0.00 in0.0 mm 0.00 in0.0 mm 0.00 in0.0 mm
06:35 AM 65.3°F18.5°C 61.4°F16.3°C 87% Calm Calm 2.2 mph3.5 kmh 29.98 in1015.2 mb 0.00 in0.0 mm 0.00 in0.0 mm 0.00 in0.0 mm
06:40 AM 65.3°F18.5°C 61.7°F16.5°C 88% Calm Calm 1.6 mph2.6 kmh 29.98 in1015.2 mb 0.00 in0.0 mm 0.00 in0.0 mm 0.00 in0.0 mm
06:45 AM 65.3°F18.5°C 61.7°F16.5°C 88% 1.6 mph SSW2.6 kmh SSW 3.1 mph5.0 kmh 29.98 in1015.2 mb 0.00 in0.0 mm 0.00 in0.0 mm 0.00 in0.0 mm
06:50 AM 65.7°F18.7°C 62.0°F16.7°C 88% Calm Calm 3.1 mph5.0 kmh 29.98 in1015.2 mb 0.00 in0.0 mm 0.00 in0.0 mm 0.00 in0.0 mm
06:55 AM 66.0°F18.9°C 62.4°F16.9°C 88% 1.6 mph E2.6 kmh E 2.2 mph3.5 kmh 29.98 in1015.2 mb 0.00 in0.0 mm 0.00 in0.0 mm 0.00 in0.0 mm
07:00 AM 66.6°F19.2°C 62.6°F17.0°C 87% 1.6 mph ESE2.6 kmh ESE 3.1 mph5.0 kmh 29.98 in1015.2 mb 0.00 in0.0 mm 0.00 in0.0 mm 0.00 in0.0 mm
07:05 AM 67.3°F19.6°C 63.6°F17.6°C 88% 0.7 mph SE1.1 kmh SE 3.1 mph5.0 kmh 29.99 in1015.6 mb 0.00 in0.0 mm 0.00 in0.0 mm 0.00 in0.0 mm
07:10 AM 68.0°F20.0°C 63.7°F17.6°C 86% 2.2 mph N3.5 kmh N 3.1 mph5.0 kmh 29.98 in1015.2 mb 0.00 in0.0 mm 0.00 in0.0 mm 0.00 in0.0 mm
07:15 AM 68.2°F20.1°C 63.9°F17.7°C 86% Calm Calm 3.1 mph5.0 kmh 29.98 in1015.2 mb 0.00 in0.0 mm 0.00 in0.0 mm 0.00 in0.0 mm
07:25 AM 68.7°F20.4°C 64.1°F17.8°C 85% Calm Calm 2.2 mph3.5 kmh 29.98 in1015.2 mb 0.00 in0.0 mm 0.00 in0.0 mm 0.00 in0.0 mm
07:30 AM 69.3°F20.7°C 64.2°F17.9°C 84% 0.7 mph ENE1.1 kmh ENE 1.6 mph2.6 kmh 29.98 in1015.2 mb 0.00 in0.0 mm 0.00 in0.0 mm 0.00 in0.0 mm
07:35 AM 70.0°F21.1°C 64.6°F18.1°C 83% 0.7 mph E1.1 kmh E 2.2 mph3.5 kmh 29.98 in1015.2 mb 0.00 in0.0 mm 0.00 in0.0 mm 0.00 in0.0 mm
07:40 AM 70.7°F21.5°C 65.0°F18.3°C 82% Calm Calm 2.2 mph3.5 kmh 29.98 in1015.2 mb 0.00 in0.0 mm 0.00 in0.0 mm 0.00 in0.0 mm
07:45 AM 71.4°F21.9°C 65.7°F18.7°C 82% Calm Calm 2.2 mph3.5 kmh 29.98 in1015.2 mb 0.00 in0.0 mm 0.00 in0.0 mm 0.00 in0.0 mm
07:50 AM 72.1°F22.3°C 65.3°F18.5°C 79% Calm Calm 2.2 mph3.5 kmh 29.99 in1015.6 mb 0.00 in0.0 mm 0.00 in0.0 mm 0.00 in0.0 mm
07:55 AM 72.9°F22.7°C 65.6°F18.7°C 78% 0.7 mph NW1.1 kmh NW 3.1 mph5.0 kmh 29.99 in1015.6 mb 0.00 in0.0 mm 0.00 in0.0 mm 0.00 in0.0 mm
08:00 AM 73.2°F22.9°C 65.6°F18.7°C 77% 1.6 mph WNW2.6 kmh WNW 3.1 mph5.0 kmh 29.99 in1015.6 mb 0.00 in0.0 mm 0.00 in0.0 mm 0.00 in0.0 mm
08:05 AM 73.6°F23.1°C 66.0°F18.9°C 77% 1.6 mph WNW2.6 kmh WNW 3.1 mph5.0 kmh 29.98 in1015.2 mb 0.00 in0.0 mm 0.00 in0.0 mm 0.00 in0.0 mm
08:10 AM 73.9°F23.3°C 66.3°F19.1°C 77% 2.2 mph NW3.5 kmh NW 3.8 mph6.1 kmh 29.98 in1015.2 mb 0.00 in0.0 mm 0.00 in0.0 mm 0.00 in0.0 mm
08:15 AM 74.1°F23.4°C 66.9°F19.4°C 78% 0.7 mph NW1.1 kmh NW 3.8 mph6.1 kmh 29.98 in1015.2 mb 0.00 in0.0 mm 0.00 in0.0 mm 0.00 in0.0 mm
08:20 AM 74.8°F23.8°C 66.8°F19.3°C 76% 0.7 mph WNW1.1 kmh WNW 3.1 mph5.0 kmh 29.98 in1015.2 mb 0.00 in0.0 mm 0.00 in0.0 mm 0.00 in0.0 mm
08:25 AM 75.2°F24.0°C 66.8°F19.3°C 75% Calm Calm 2.2 mph3.5 kmh 29.98 in1015.2 mb 0.00 in0.0 mm 0.00 in0.0 mm 0.00 in0.0 mm
08:30 AM 75.9°F24.4°C 67.1°F19.5°C 74% 1.6 mph SW2.6 kmh SW 3.8 mph6.1 kmh 29.99 in1015.6 mb 0.00 in0.0 mm 0.00 in0.0 mm 0.00 in0.0 mm
08:35 AM 76.6°F24.8°C 67.0°F19.4°C 72% 3.1 mph SW5.0 kmh SW 4.5 mph7.2 kmh 29.99 in1015.6 mb 0.00 in0.0 mm 0.00 in0.0 mm 0.00 in0.0 mm
08:40 AM 77.2°F25.1°C 65.8°F18.8°C 68% 3.1 mph WSW5.0 kmh WSW 5.4 mph8.7 kmh 29.98 in1015.2 mb 0.00 in0.0 mm 0.00 in0.0 mm 0.00 in0.0 mm
08:50 AM 77.4°F25.2°C 65.6°F18.7°C 67% Calm Calm 4.5 mph7.2 kmh 29.98 in1015.2 mb 0.00 in0.0 mm 0.00 in0.0 mm 0.00 in0.0 mm
08:55 AM 77.2°F25.1°C 65.4°F18.6°C 67% 1.6 mph WSW2.6 kmh WSW 3.1 mph5.0 kmh 29.98 in1015.2 mb 0.00 in0.0 mm 0.00 in0.0 mm 0.00 in0.0 mm
09:00 AM 77.0°F25.0°C 65.2°F18.4°C 67% 2.2 mph WSW3.5 kmh WSW 4.5 mph7.2 kmh 29.98 in1015.2 mb 0.00 in0.0 mm 0.00 in0.0 mm 0.00 in0.0 mm
09:05 AM 76.6°F24.8°C 65.7°F18.7°C 69% 1.6 mph SW2.6 kmh SW 4.5 mph7.2 kmh 29.98 in1015.2 mb 0.00 in0.0 mm 0.00 in0.0 mm 0.00 in0.0 mm
09:10 AM 76.5°F24.7°C 66.0°F18.9°C 70% 2.2 mph WSW3.5 kmh WSW 4.5 mph7.2 kmh 29.98 in1015.2 mb 0.00 in0.0 mm 0.00 in0.0 mm 0.00 in0.0 mm
09:15 AM 76.1°F24.5°C 65.6°F18.7°C 70% 1.6 mph W2.6 kmh W 3.8 mph6.1 kmh 29.98 in1015.2 mb 0.00 in0.0 mm 0.00 in0.0 mm 0.00 in0.0 mm
09:20 AM 75.7°F24.3°C 65.7°F18.7°C 71% 1.6 mph W2.6 kmh W 3.8 mph6.1 kmh 29.98 in1015.2 mb 0.00 in0.0 mm 0.00 in0.0 mm 0.00 in0.0 mm
09:25 AM 75.6°F24.2°C 65.1°F18.4°C 70% 1.6 mph W2.6 kmh W 3.8 mph6.1 kmh 29.98 in1015.2 mb 0.00 in0.0 mm 0.00 in0.0 mm 0.00 in0.0 mm
09:30 AM 75.6°F24.2°C 65.9°F18.8°C 72% 1.6 mph W2.6 kmh W 3.1 mph5.0 kmh 29.98 in1015.2 mb 0.00 in0.0 mm 0.00 in0.0 mm 0.00 in0.0 mm
09:35 AM 75.7°F24.3°C 66.1°F18.9°C 72% 1.6 mph W2.6 kmh W 3.8 mph6.1 kmh 29.98 in1015.2 mb 0.00 in0.0 mm 0.00 in0.0 mm 0.00 in0.0 mm
09:40 AM 75.9°F24.4°C 66.7°F19.3°C 73% 3.1 mph W5.0 kmh W 3.8 mph6.1 kmh 29.97 in1014.9 mb 0.00 in0.0 mm 0.00 in0.0 mm 0.00 in0.0 mm
09:45 AM 76.5°F24.7°C 67.6°F19.8°C 74% 2.2 mph W3.5 kmh W 3.8 mph6.1 kmh 29.97 in1014.9 mb 0.00 in0.0 mm 0.00 in0.0 mm 0.00 in0.0 mm
09:50 AM 77.7°F25.4°C 67.6°F19.8°C 71% 2.2 mph W3.5 kmh W 3.8 mph6.1 kmh 29.97 in1014.9 mb 0.00 in0.0 mm 0.00 in0.0 mm 0.00 in0.0 mm
09:55 AM 79.2°F26.2°C 66.9°F19.4°C 66% 0.7 mph W1.1 kmh W 3.8 mph6.1 kmh 29.97 in1014.9 mb 0.00 in0.0 mm 0.00 in0.0 mm 0.00 in0.0 mm
10:00 AM 81.0°F27.2°C 66.8°F19.3°C 62% 2.2 mph W3.5 kmh W 3.8 mph6.1 kmh 29.97 in1014.9 mb 0.00 in0.0 mm 0.00 in0.0 mm 0.00 in0.0 mm
10:05 AM 81.9°F27.7°C 67.1°F19.5°C 61% 2.2 mph WSW3.5 kmh WSW 4.5 mph7.2 kmh 29.97 in1014.9 mb 0.00 in0.0 mm 0.00 in0.0 mm 0.00 in0.0 mm
10:15 AM 83.3°F28.5°C 67.0°F19.4°C 58% 2.2 mph WNW3.5 kmh WNW 3.8 mph6.1 kmh 29.97 in1014.9 mb 0.00 in0.0 mm 0.00 in0.0 mm 0.00 in0.0 mm
10:20 AM 83.5°F28.6°C 66.7°F19.3°C 57% 1.6 mph WSW2.6 kmh WSW 3.8 mph6.1 kmh 29.96 in1014.6 mb 0.00 in0.0 mm 0.00 in0.0 mm 0.00 in0.0 mm
10:25 AM 83.5°F28.6°C 66.7°F19.3°C 57% 0.7 mph SW1.1 kmh SW 4.5 mph7.2 kmh 29.96 in1014.6 mb 0.00 in0.0 mm 0.00 in0.0 mm 0.00 in0.0 mm
10:30 AM 83.5°F28.6°C 66.7°F19.3°C 57% 1.6 mph WSW2.6 kmh WSW 4.5 mph7.2 kmh 29.96 in1014.6 mb 0.00 in0.0 mm 0.00 in0.0 mm 0.00 in0.0 mm
10:35 AM 83.1°F28.4°C 65.8°F18.8°C 56% 0.7 mph W1.1 kmh W 4.5 mph7.2 kmh 29.96 in1014.6 mb 0.00 in0.0 mm 0.00 in0.0 mm 0.00 in0.0 mm
10:40 AM 82.9°F28.3°C 66.2°F19.0°C 57% 2.2 mph W3.5 kmh W 4.5 mph7.2 kmh 29.96 in1014.6 mb 0.00 in0.0 mm 0.00 in0.0 mm 0.00 in0.0 mm
10:45 AM 82.9°F28.3°C 67.2°F19.6°C 59% 0.7 mph NW1.1 kmh NW 5.4 mph8.7 kmh 29.96 in1014.6 mb 0.00 in0.0 mm 0.00 in0.0 mm 0.00 in0.0 mm
10:50 AM 83.8°F28.8°C 68.0°F20.0°C 59% 3.8 mph NNW6.1 kmh NNW 5.4 mph8.7 kmh 29.95 in1014.2 mb 0.00 in0.0 mm 0.00 in0.0 mm 0.00 in0.0 mm
10:55 AM 85.6°F29.8°C 67.1°F19.5°C 54% 3.1 mph N5.0 kmh N 8.3 mph13.4 kmh 29.95 in1014.2 mb 0.00 in0.0 mm 0.00 in0.0 mm 0.00 in0.0 mm
11:00 AM 86.7°F30.4°C 64.7°F18.2°C 48% 7.6 mph NNE12.2 kmh NNE 10.7 mph17.2 kmh 29.95 in1014.2 mb 0.00 in0.0 mm 0.00 in0.0 mm 0.00 in0.0 mm
11:05 AM 86.7°F30.4°C 64.7°F18.2°C 48% 7.6 mph NE12.2 kmh NE 10.7 mph17.2 kmh 29.94 in1013.9 mb 0.00 in0.0 mm 0.00 in0.0 mm 0.00 in0.0 mm
11:10 AM 87.4°F30.8°C 62.9°F17.2°C 44% 6.0 mph NE9.7 kmh NE 11.4 mph18.3 kmh 29.95 in1014.2 mb 0.00 in0.0 mm 0.00 in0.0 mm 0.00 in0.0 mm
11:15 AM 87.1°F30.6°C 62.6°F17.0°C 44% 4.5 mph NE7.2 kmh NE 11.4 mph18.3 kmh 29.94 in1013.9 mb 0.00 in0.0 mm 0.00 in0.0 mm 0.00 in0.0 mm
11:20 AM 87.4°F30.8°C 62.9°F17.2°C 44% 5.4 mph NE8.7 kmh NE 8.3 mph13.4 kmh 29.94 in1013.9 mb 0.00 in0.0 mm 0.00 in0.0 mm 0.00 in0.0 mm
11:25 AM 88.3°F31.3°C 62.4°F16.9°C 42% 5.4 mph NE8.7 kmh NE 8.3 mph13.4 kmh 29.94 in1013.9 mb 0.00 in0.0 mm 0.00 in0.0 mm 0.00 in0.0 mm
11:30 AM 88.9°F31.6°C 60.0°F15.6°C 38% 6.9 mph NE11.1 kmh NE 12.1 mph19.5 kmh 29.94 in1013.9 mb 0.00 in0.0 mm 0.00 in0.0 mm 0.00 in0.0 mm
11:40 AM 87.8°F31.0°C 57.6°F14.2°C 36% 6.0 mph N9.7 kmh N 12.1 mph19.5 kmh 29.94 in1013.9 mb 0.00 in0.0 mm 0.00 in0.0 mm 0.00 in0.0 mm
11:45 AM 87.6°F30.9°C 58.9°F14.9°C 38% 4.5 mph NE7.2 kmh NE 11.4 mph18.3 kmh 29.94 in1013.9 mb 0.00 in0.0 mm 0.00 in0.0 mm 0.00 in0.0 mm
11:50 AM 87.6°F30.9°C 59.7°F15.4°C 39% 6.0 mph NNE9.7 kmh NNE 9.2 mph14.8 kmh 29.93 in1013.5 mb 0.00 in0.0 mm 0.00 in0.0 mm 0.00 in0.0 mm
11:55 AM 88.0°F31.1°C 58.5°F14.7°C 37% 6.0 mph N9.7 kmh N 8.3 mph13.4 kmh 29.93 in1013.5 mb 0.00 in0.0 mm 0.00 in0.0 mm 0.00 in0.0 mm
12:00 PM 88.9°F31.6°C 59.3°F15.2°C 37% 3.8 mph NE6.1 kmh NE 8.3 mph13.4 kmh 29.93 in1013.5 mb 0.00 in0.0 mm 0.00 in0.0 mm 0.00 in0.0 mm
12:05 PM 89.6°F32.0°C 58.4°F14.7°C 35% 7.6 mph NE12.2 kmh NE 13.6 mph21.9 kmh 29.93 in1013.5 mb 0.00 in0.0 mm 0.00 in0.0 mm 0.00 in0.0 mm
12:10 PM 90.0°F32.2°C 58.7°F14.8°C 35% 2.2 mph NE3.5 kmh NE 13.6 mph21.9 kmh 29.93 in1013.5 mb 0.00 in0.0 mm 0.00 in0.0 mm 0.00 in0.0 mm
12:15 PM 90.9°F32.7°C 60.3°F15.7°C 36% 2.2 mph NE3.5 kmh NE 11.4 mph18.3 kmh 29.93 in1013.5 mb 0.00 in0.0 mm 0.00 in0.0 mm 0.00 in0.0 mm
12:20 PM 91.6°F33.1°C 61.7°F16.5°C 37% 3.1 mph NNE5.0 kmh NNE 7.6 mph12.2 kmh 29.93 in1013.5 mb 0.00 in0.0 mm 0.00 in0.0 mm 0.00 in0.0 mm
12:25 PM 91.8°F33.2°C 61.8°F16.6°C 37% 1.6 mph NE2.6 kmh NE 6.0 mph9.7 kmh 29.93 in1013.5 mb 0.00 in0.0 mm 0.00 in0.0 mm 0.00 in0.0 mm
12:30 PM 92.5°F33.6°C 61.7°F16.5°C 36% 6.0 mph ENE9.7 kmh ENE 8.3 mph13.4 kmh 29.92 in1013.2 mb 0.00 in0.0 mm 0.00 in0.0 mm 0.00 in0.0 mm
12:35 PM 92.5°F33.6°C 61.7°F16.5°C 36% 4.5 mph ENE7.2 kmh ENE 8.3 mph13.4 kmh 29.91 in1012.9 mb 0.00 in0.0 mm 0.00 in0.0 mm 0.00 in0.0 mm
12:40 PM 92.8°F33.8°C 62.0°F16.7°C 36% 3.8 mph E6.1 kmh E 8.3 mph13.4 kmh 29.91 in1012.9 mb 0.00 in0.0 mm 0.00 in0.0 mm 0.00 in0.0 mm
12:45 PM 93.6°F34.2°C 62.7°F17.1°C 36% 3.1 mph ENE5.0 kmh ENE 6.9 mph11.1 kmh 29.91 in1012.9 mb 0.00 in0.0 mm 0.00 in0.0 mm 0.00 in0.0 mm
12:50 PM 94.3°F34.6°C 62.5°F16.9°C 35% 4.5 mph N7.2 kmh N 6.9 mph11.1 kmh 29.91 in1012.9 mb 0.00 in0.0 mm 0.00 in0.0 mm 0.00 in0.0 mm
12:55 PM 95.0°F35.0°C 63.1°F17.3°C 35% 4.5 mph N7.2 kmh N 7.6 mph12.2 kmh 29.91 in1012.9 mb 0.00 in0.0 mm 0.00 in0.0 mm 0.00 in0.0 mm
01:05 PM 95.7°F35.4°C 62.1°F16.7°C 33% 3.1 mph NNE5.0 kmh NNE 6.9 mph11.1 kmh 29.90 in1012.5 mb 0.00 in0.0 mm 0.00 in0.0 mm 0.00 in0.0 mm
01:10 PM 96.4°F35.8°C 62.7°F17.1°C 33% 3.1 mph NE5.0 kmh NE 6.0 mph9.7 kmh 29.89 in1012.2 mb 0.00 in0.0 mm 0.00 in0.0 mm 0.00 in0.0 mm
01:15 PM 96.4°F35.8°C 60.9°F16.1°C 31% 0.7 mph E1.1 kmh E 10.7 mph17.2 kmh 29.89 in1012.2 mb 0.00 in0.0 mm 0.00 in0.0 mm 0.00 in0.0 mm
01:20 PM 96.6°F35.9°C 62.9°F17.2°C 33% 3.1 mph E5.0 kmh E 10.7 mph17.2 kmh 29.89 in1012.2 mb 0.00 in0.0 mm 0.00 in0.0 mm 0.00 in0.0 mm
01:25 PM 96.4°F35.8°C 62.7°F17.1°C 33% 3.1 mph NE5.0 kmh NE 6.0 mph9.7 kmh 29.89 in1012.2 mb 0.00 in0.0 mm 0.00 in0.0 mm 0.00 in0.0 mm
01:30 PM 96.3°F35.7°C 62.6°F17.0°C 33% 1.6 mph NE2.6 kmh NE 6.0 mph9.7 kmh 29.89 in1012.2 mb 0.00 in0.0 mm 0.00 in0.0 mm 0.00 in0.0 mm
01:35 PM 95.5°F35.3°C 61.1°F16.2°C 32% 2.2 mph NE3.5 kmh NE 5.4 mph8.7 kmh 29.88 in1011.9 mb 0.00 in0.0 mm 0.00 in0.0 mm 0.00 in0.0 mm
01:40 PM 94.8°F34.9°C 62.1°F16.7°C 34% 1.6 mph NE2.6 kmh NE 7.6 mph12.2 kmh 29.88 in1011.9 mb 0.00 in0.0 mm 0.00 in0.0 mm 0.00 in0.0 mm
01:45 PM 94.6°F34.8°C 62.0°F16.7°C 34% 2.2 mph NNE3.5 kmh NNE 7.6 mph12.2 kmh 29.88 in1011.9 mb 0.00 in0.0 mm 0.00 in0.0 mm 0.00 in0.0 mm
01:50 PM 94.8°F34.9°C 64.6°F18.1°C 37% 2.2 mph N3.5 kmh N 3.8 mph6.1 kmh 29.88 in1011.9 mb 0.00 in0.0 mm 0.00 in0.0 mm 0.00 in0.0 mm
01:55 PM 94.8°F34.9°C 63.8°F17.7°C 36% 3.8 mph N6.1 kmh N 5.4 mph8.7 kmh 29.87 in1011.5 mb 0.00 in0.0 mm 0.00 in0.0 mm 0.00 in0.0 mm
02:00 PM 94.8°F34.9°C 61.3°F16.3°C 33% 3.1 mph SE5.0 kmh SE 6.0 mph9.7 kmh 29.87 in1011.5 mb 0.00 in0.0 mm 0.00 in0.0 mm 0.00 in0.0 mm
02:05 PM 95.4°F35.2°C 61.8°F16.6°C 33% 2.2 mph SSE3.5 kmh SSE 6.0 mph9.7 kmh 29.87 in1011.5 mb 0.00 in0.0 mm 0.00 in0.0 mm 0.00 in0.0 mm
02:10 PM 95.7°F35.4°C 59.4°F15.2°C 30% 2.2 mph SSE3.5 kmh SSE 9.2 mph14.8 kmh 29.87 in1011.5 mb 0.00 in0.0 mm 0.00 in0.0 mm 0.00 in0.0 mm
02:15 PM 95.7°F35.4°C 62.1°F16.7°C 33% 2.2 mph SSE3.5 kmh SSE 9.2 mph14.8 kmh 29.87 in1011.5 mb 0.00 in0.0 mm 0.00 in0.0 mm 0.00 in0.0 mm
02:20 PM 95.5°F35.3°C 61.9°F16.6°C 33% 2.2 mph WNW3.5 kmh WNW 4.5 mph7.2 kmh 29.87 in1011.5 mb 0.00 in0.0 mm 0.00 in0.0 mm 0.00 in0.0 mm
02:25 PM 95.0°F35.0°C 61.5°F16.4°C 33% 2.2 mph W3.5 kmh W 4.5 mph7.2 kmh 29.87 in1011.5 mb 0.00 in0.0 mm 0.00 in0.0 mm 0.00 in0.0 mm
02:30 PM 94.6°F34.8°C 62.0°F16.7°C 34% 7.6 mph W12.2 kmh W 9.8 mph15.8 kmh 29.87 in1011.5 mb 0.00 in0.0 mm 0.00 in0.0 mm 0.00 in0.0 mm
02:35 PM 93.9°F34.4°C 62.2°F16.8°C 35% 3.1 mph W5.0 kmh W 9.8 mph15.8 kmh 29.87 in1011.5 mb 0.00 in0.0 mm 0.00 in0.0 mm 0.00 in0.0 mm
02:40 PM 93.4°F34.1°C 62.5°F16.9°C 36% 3.8 mph WSW6.1 kmh WSW 7.6 mph12.2 kmh 29.87 in1011.5 mb 0.00 in0.0 mm 0.00 in0.0 mm 0.00 in0.0 mm
02:45 PM 92.7°F33.7°C 62.6°F17.0°C 37% 3.8 mph W6.1 kmh W 6.9 mph11.1 kmh 29.86 in1011.2 mb 0.00 in0.0 mm 0.00 in0.0 mm 0.00 in0.0 mm
02:50 PM 92.3°F33.5°C 62.3°F16.8°C 37% 2.2 mph W3.5 kmh W 6.9 mph11.1 kmh 29.87 in1011.5 mb 0.00 in0.0 mm 0.00 in0.0 mm 0.00 in0.0 mm
02:55 PM 91.8°F33.2°C 61.8°F16.6°C 37% 8.3 mph SSW13.4 kmh SSW 9.8 mph15.8 kmh 29.88 in1011.9 mb 0.00 in0.0 mm 0.00 in0.0 mm 0.00 in0.0 mm
03:00 PM 90.7°F32.6°C 56.0°F13.3°C 31% 11.4 mph SSE18.3 kmh SSE 19.7 mph31.7 kmh 29.88 in1011.9 mb 0.00 in0.0 mm 0.00 in0.0 mm 0.00 in0.0 mm
03:05 PM 89.6°F32.0°C 54.1°F12.3°C 30% 13.6 mph SSE21.9 kmh SSE 24.4 mph39.3 kmh 29.89 in1012.2 mb 0.00 in0.0 mm 0.00 in0.0 mm 0.00 in0.0 mm
03:10 PM 88.3°F31.3°C 54.8°F12.7°C 32% 9.2 mph S14.8 kmh S 24.4 mph39.3 kmh 29.89 in1012.2 mb 0.00 in0.0 mm 0.00 in0.0 mm 0.00 in0.0 mm
03:15 PM 86.9°F30.5°C 56.0°F13.3°C 35% 7.6 mph SW12.2 kmh SW 24.4 mph39.3 kmh 29.90 in1012.5 mb 0.00 in0.0 mm 0.00 in0.0 mm 0.00 in0.0 mm
03:20 PM 84.6°F29.2°C 56.2°F13.4°C 38% 15.9 mph W25.6 kmh W 21.3 mph34.3 kmh 29.89 in1012.2 mb 0.00 in0.0 mm 0.00 in0.0 mm 0.00 in0.0 mm
03:25 PM 82.2°F27.9°C 56.9°F13.8°C 42% 5.4 mph W8.7 kmh W 21.3 mph34.3 kmh 29.89 in1012.2 mb 0.00 in0.0 mm 0.00 in0.0 mm 0.00 in0.0 mm
03:30 PM 80.2°F26.8°C 55.8°F13.2°C 43% 10.7 mph W17.2 kmh W 20.6 mph33.2 kmh 29.89 in1012.2 mb 0.00 in0.0 mm 0.00 in0.0 mm 0.00 in0.0 mm
03:35 PM 77.5°F25.3°C 55.8°F13.2°C 47% 8.3 mph W13.4 kmh W 17.4 mph28.0 kmh 29.91 in1012.9 mb 0.00 in0.0 mm 0.00 in0.0 mm 0.00 in0.0 mm
03:40 PM 75.2°F24.0°C 58.0°F14.4°C 55% 14.5 mph NW23.3 kmh NW 18.3 mph29.5 kmh 29.93 in1013.5 mb 0.00 in0.0 mm 0.00 in0.0 mm 0.00 in0.0 mm
03:45 PM 73.6°F23.1°C 57.4°F14.1°C 57% 10.7 mph NW17.2 kmh NW 25.9 mph41.7 kmh 29.95 in1014.2 mb 0.00 in0.0 mm 0.00 in0.0 mm 0.00 in0.0 mm
03:55 PM 72.1°F22.3°C 55.1°F12.8°C 55% 12.1 mph W19.5 kmh W 18.3 mph29.5 kmh 29.96 in1014.6 mb 0.00 in0.0 mm 0.00 in0.0 mm 0.00 in0.0 mm
04:00 PM 71.6°F22.0°C 56.1°F13.4°C 58% 12.1 mph SW19.5 kmh SW 18.3 mph29.5 kmh 29.97 in1014.9 mb 0.00 in0.0 mm 0.00 in0.0 mm 0.00 in0.0 mm
04:05 PM 70.9°F21.6°C 57.2°F14.0°C 62% 6.0 mph WSW9.7 kmh WSW 18.3 mph29.5 kmh 29.98 in1015.2 mb 0.00 in0.0 mm 0.00 in0.0 mm 0.00 in0.0 mm
04:10 PM 70.2°F21.2°C 57.0°F13.9°C 63% 9.2 mph WNW14.8 kmh WNW 17.4 mph28.0 kmh 29.98 in1015.2 mb 0.00 in0.0 mm 0.00 in0.0 mm 0.00 in0.0 mm
04:15 PM 69.8°F21.0°C 57.1°F13.9°C 64% 3.8 mph NW6.1 kmh NW 12.1 mph19.5 kmh 29.98 in1015.2 mb 0.00 in0.0 mm 0.00 in0.0 mm 0.00 in0.0 mm
04:20 PM 69.6°F20.9°C 57.8°F14.3°C 66% 8.3 mph WNW13.4 kmh WNW 13.0 mph20.9 kmh 29.98 in1015.2 mb 0.00 in0.0 mm 0.00 in0.0 mm 0.00 in0.0 mm
04:25 PM 69.3°F20.7°C 57.9°F14.4°C 67% 7.6 mph W12.2 kmh W 13.0 mph20.9 kmh 29.99 in1015.6 mb 0.00 in0.0 mm 0.00 in0.0 mm 0.00 in0.0 mm
04:30 PM 69.1°F20.6°C 58.5°F14.7°C 69% 6.0 mph W9.7 kmh W 13.0 mph20.9 kmh 29.99 in1015.6 mb 0.00 in0.0 mm 0.00 in0.0 mm 0.00 in0.0 mm
04:35 PM 69.1°F20.6°C 59.3°F15.2°C 71% 5.4 mph NW8.7 kmh NW 12.1 mph19.5 kmh 30.02 in1016.6 mb 0.00 in0.0 mm 0.00 in0.0 mm 0.00 in0.0 mm
04:40 PM 68.9°F20.5°C 59.5°F15.3°C 72% 4.5 mph N7.2 kmh N 11.4 mph18.3 kmh 30.01 in1016.3 mb 0.00 in0.0 mm 0.00 in0.0 mm 0.00 in0.0 mm
04:45 PM 68.7°F20.4°C 59.7°F15.4°C 73% 1.6 mph NNE2.6 kmh NNE 9.8 mph15.8 kmh 30.00 in1015.9 mb 0.00 in0.0 mm 0.00 in0.0 mm 0.00 in0.0 mm
04:50 PM 68.7°F20.4°C 60.5°F15.8°C 75% 2.2 mph NNE3.5 kmh NNE 6.9 mph11.1 kmh 30.00 in1015.9 mb 0.00 in0.0 mm 0.00 in0.0 mm 0.00 in0.0 mm
04:55 PM 68.5°F20.3°C 60.3°F15.7°C 75% 1.6 mph NNE2.6 kmh NNE 4.5 mph7.2 kmh 29.99 in1015.6 mb 0.00 in0.0 mm 0.00 in0.0 mm 0.00 in0.0 mm
05:00 PM 68.5°F20.3°C 60.7°F15.9°C 76% 2.2 mph N3.5 kmh N 4.5 mph7.2 kmh 29.99 in1015.6 mb 0.00 in0.0 mm 0.00 in0.0 mm 0.00 in0.0 mm
05:05 PM 68.7°F20.4°C 62.0°F16.7°C 79% 2.2 mph S3.5 kmh S 8.3 mph13.4 kmh 29.99 in1015.6 mb 0.00 in0.0 mm 0.00 in0.0 mm 0.00 in0.0 mm
05:10 PM 68.5°F20.3°C 62.2°F16.8°C 80% 3.1 mph S5.0 kmh S 8.3 mph13.4 kmh 30.00 in1015.9 mb 0.01 in0.3 mm 0.12 in3.0 mm 0.01 in0.3 mm
05:15 PM 68.4°F20.2°C 62.7°F17.1°C 82% 8.3 mph SSE13.4 kmh SSE 12.1 mph19.5 kmh 29.99 in1015.6 mb 0.01 in0.3 mm 0.00 in0.0 mm 0.01 in0.3 mm
05:20 PM 68.0°F20.0°C 62.7°F17.1°C 83% 5.4 mph SSE8.7 kmh SSE 12.1 mph19.5 kmh 30.02 in1016.6 mb 0.01 in0.3 mm 0.00 in0.0 mm 0.01 in0.3 mm
05:25 PM 68.0°F20.0°C 63.0°F17.2°C 84% 3.1 mph SE5.0 kmh SE 9.8 mph15.8 kmh 30.01 in1016.3 mb 0.01 in0.3 mm 0.00 in0.0 mm 0.01 in0.3 mm
05:30 PM 68.2°F20.1°C 63.2°F17.3°C 84% 1.6 mph ESE2.6 kmh ESE 8.3 mph13.4 kmh 30.00 in1015.9 mb 0.01 in0.3 mm 0.00 in0.0 mm 0.01 in0.3 mm
05:35 PM 68.4°F20.2°C 63.0°F17.2°C 83% 2.2 mph SE3.5 kmh SE 4.5 mph7.2 kmh 30.00 in1015.9 mb 0.01 in0.3 mm 0.00 in0.0 mm 0.01 in0.3 mm
05:40 PM 68.7°F20.4°C 63.7°F17.6°C 84% 3.8 mph SSE6.1 kmh SSE 6.0 mph9.7 kmh 30.00 in1015.9 mb 0.01 in0.3 mm 0.00 in0.0 mm 0.01 in0.3 mm
05:45 PM 69.1°F20.6°C 64.1°F17.8°C 84% 2.2 mph SSE3.5 kmh SSE 6.0 mph9.7 kmh 29.99 in1015.6 mb 0.01 in0.3 mm 0.00 in0.0 mm 0.01 in0.3 mm
05:50 PM 69.4°F20.8°C 64.4°F18.0°C 84% 7.6 mph ESE12.2 kmh ESE 9.8 mph15.8 kmh 30.00 in1015.9 mb 0.01 in0.3 mm 0.00 in0.0 mm 0.01 in0.3 mm
05:55 PM 69.6°F20.9°C 64.6°F18.1°C 84% 3.1 mph E5.0 kmh E 9.8 mph15.8 kmh 30.00 in1015.9 mb 0.01 in0.3 mm 0.00 in0.0 mm 0.01 in0.3 mm
06:00 PM 69.6°F20.9°C 64.3°F17.9°C 83% 1.6 mph E2.6 kmh E 9.8 mph15.8 kmh 29.99 in1015.6 mb 0.01 in0.3 mm 0.00 in0.0 mm 0.01 in0.3 mm
06:05 PM 69.6°F20.9°C 64.3°F17.9°C 83% 2.2 mph NNE3.5 kmh NNE 6.0 mph9.7 kmh 29.98 in1015.2 mb 0.01 in0.3 mm 0.00 in0.0 mm 0.01 in0.3 mm
06:10 PM 69.6°F20.9°C 64.3°F17.9°C 83% 0.7 mph N1.1 kmh N 4.5 mph7.2 kmh 29.98 in1015.2 mb 0.00 in0.0 mm 0.00 in0.0 mm 0.01 in0.3 mm
06:15 PM 69.4°F20.8°C 64.1°F17.8°C 83% 4.5 mph S7.2 kmh S 6.9 mph11.1 kmh 29.99 in1015.6 mb 0.00 in0.0 mm 0.00 in0.0 mm 0.01 in0.3 mm
06:20 PM 69.4°F20.8°C 64.1°F17.8°C 83% 3.1 mph S5.0 kmh S 7.6 mph12.2 kmh 30.00 in1015.9 mb 0.00 in0.0 mm 0.00 in0.0 mm 0.01 in0.3 mm
06:25 PM 69.6°F20.9°C 63.6°F17.6°C 81% 3.8 mph S6.1 kmh S 7.6 mph12.2 kmh 29.99 in1015.6 mb 0.00 in0.0 mm 0.00 in0.0 mm 0.01 in0.3 mm
06:30 PM 69.8°F21.0°C 63.0°F17.2°C 79% 3.8 mph S6.1 kmh S 7.6 mph12.2 kmh 30.00 in1015.9 mb 0.00 in0.0 mm 0.00 in0.0 mm 0.01 in0.3 mm
06:35 PM 70.0°F21.1°C 62.5°F16.9°C 77% 3.8 mph S6.1 kmh S 7.6 mph12.2 kmh 30.02 in1016.6 mb 0.00 in0.0 mm 0.00 in0.0 mm 0.01 in0.3 mm
06:40 PM 70.0°F21.1°C 62.5°F16.9°C 77% Calm Calm 8.3 mph13.4 kmh 30.01 in1016.3 mb 0.00 in0.0 mm 0.00 in0.0 mm 0.01 in0.3 mm
06:45 PM 70.0°F21.1°C 62.1°F16.7°C 76% 0.7 mph S1.1 kmh S 8.3 mph13.4 kmh 30.02 in1016.6 mb 0.00 in0.0 mm 0.00 in0.0 mm 0.01 in0.3 mm
06:50 PM 70.2°F21.2°C 62.6°F17.0°C 77% 1.6 mph SW2.6 kmh SW 6.0 mph9.7 kmh 30.02 in1016.6 mb 0.00 in0.0 mm 0.00 in0.0 mm 0.01 in0.3 mm
06:55 PM 70.2°F21.2°C 62.3°F16.8°C 76% 3.1 mph SW5.0 kmh SW 6.9 mph11.1 kmh 30.03 in1016.9 mb 0.00 in0.0 mm 0.00 in0.0 mm 0.01 in0.3 mm
07:05 PM 69.6°F20.9°C 63.6°F17.6°C 81% 3.1 mph W5.0 kmh W 9.2 mph14.8 kmh 30.03 in1016.9 mb 0.00 in0.0 mm 0.00 in0.0 mm 0.01 in0.3 mm
07:10 PM 69.4°F20.8°C 63.4°F17.4°C 81% 2.2 mph W3.5 kmh W 9.2 mph14.8 kmh 30.02 in1016.6 mb 0.00 in0.0 mm 0.00 in0.0 mm 0.01 in0.3 mm
07:15 PM 69.6°F20.9°C 63.9°F17.7°C 82% 3.1 mph W5.0 kmh W 6.9 mph11.1 kmh 30.02 in1016.6 mb 0.00 in0.0 mm 0.00 in0.0 mm 0.01 in0.3 mm
07:20 PM 70.0°F21.1°C 63.6°F17.6°C 80% 3.8 mph NW6.1 kmh NW 6.0 mph9.7 kmh 30.02 in1016.6 mb 0.00 in0.0 mm 0.00 in0.0 mm 0.01 in0.3 mm
07:25 PM 70.5°F21.4°C 63.4°F17.4°C 78% 4.5 mph NW7.2 kmh NW 6.9 mph11.1 kmh 30.02 in1016.6 mb 0.00 in0.0 mm 0.00 in0.0 mm 0.01 in0.3 mm
07:30 PM 71.2°F21.8°C 63.3°F17.4°C 76% 4.5 mph WNW7.2 kmh WNW 8.3 mph13.4 kmh 30.02 in1016.6 mb 0.00 in0.0 mm 0.00 in0.0 mm 0.01 in0.3 mm
07:35 PM 71.4°F21.9°C 63.1°F17.3°C 75% 5.4 mph NW8.7 kmh NW 11.4 mph18.3 kmh 30.02 in1016.6 mb 0.00 in0.0 mm 0.00 in0.0 mm 0.01 in0.3 mm
07:40 PM 71.2°F21.8°C 62.6°F17.0°C 74% 2.2 mph NW3.5 kmh NW 11.4 mph18.3 kmh 30.03 in1016.9 mb 0.00 in0.0 mm 0.00 in0.0 mm 0.01 in0.3 mm
07:45 PM 70.9°F21.6°C 62.6°F17.0°C 75% 2.2 mph NW3.5 kmh NW 10.7 mph17.2 kmh 30.02 in1016.6 mb 0.00 in0.0 mm 0.00 in0.0 mm 0.01 in0.3 mm
07:50 PM 70.9°F21.6°C 62.6°F17.0°C 75% 3.8 mph WNW6.1 kmh WNW 6.9 mph11.1 kmh 30.02 in1016.6 mb 0.00 in0.0 mm 0.00 in0.0 mm 0.01 in0.3 mm
07:55 PM 70.7°F21.5°C 62.8°F17.1°C 76% 4.5 mph WSW7.2 kmh WSW 10.7 mph17.2 kmh 30.02 in1016.6 mb 0.00 in0.0 mm 0.00 in0.0 mm 0.01 in0.3 mm
08:00 PM 70.5°F21.4°C 62.2°F16.8°C 75% 4.5 mph SW7.2 kmh SW 10.7 mph17.2 kmh 30.03 in1016.9 mb 0.00 in0.0 mm 0.00 in0.0 mm 0.01 in0.3 mm
08:05 PM 70.5°F21.4°C 62.2°F16.8°C 75% 4.5 mph S7.2 kmh S 8.3 mph13.4 kmh 30.03 in1016.9 mb 0.00 in0.0 mm 0.00 in0.0 mm 0.01 in0.3 mm
08:10 PM 70.3°F21.3°C 62.1°F16.7°C 75% 3.1 mph S5.0 kmh S 9.8 mph15.8 kmh 30.02 in1016.6 mb 0.00 in0.0 mm 0.00 in0.0 mm 0.01 in0.3 mm
08:15 PM 70.0°F21.1°C 61.7°F16.5°C 75% 4.5 mph S7.2 kmh S 9.8 mph15.8 kmh 30.03 in1016.9 mb 0.00 in0.0 mm 0.00 in0.0 mm 0.01 in0.3 mm
08:20 PM 69.6°F20.9°C 62.1°F16.7°C 77% 4.5 mph SSE7.2 kmh SSE 8.3 mph13.4 kmh 30.04 in1017.3 mb 0.00 in0.0 mm 0.00 in0.0 mm 0.01 in0.3 mm
08:30 PM 69.3°F20.7°C 62.1°F16.7°C 78% 2.2 mph SSE3.5 kmh SSE 7.6 mph12.2 kmh 30.04 in1017.3 mb 0.00 in0.0 mm 0.00 in0.0 mm 0.01 in0.3 mm
08:35 PM 69.3°F20.7°C 62.1°F16.7°C 78% 1.6 mph S2.6 kmh S 6.9 mph11.1 kmh 30.03 in1016.9 mb 0.00 in0.0 mm 0.00 in0.0 mm 0.01 in0.3 mm
08:40 PM 69.3°F20.7°C 62.5°F16.9°C 79% 1.6 mph W2.6 kmh W 3.8 mph6.1 kmh 30.02 in1016.6 mb 0.00 in0.0 mm 0.00 in0.0 mm 0.01 in0.3 mm
08:45 PM 69.1°F20.6°C 62.7°F17.1°C 80% 1.6 mph NW2.6 kmh NW 3.1 mph5.0 kmh 30.02 in1016.6 mb 0.00 in0.0 mm 0.00 in0.0 mm 0.01 in0.3 mm
08:50 PM 68.9°F20.5°C 62.5°F16.9°C 80% 2.2 mph NW3.5 kmh NW 3.8 mph6.1 kmh 30.01 in1016.3 mb 0.00 in0.0 mm 0.00 in0.0 mm 0.01 in0.3 mm
08:55 PM 68.7°F20.4°C 62.3°F16.8°C 80% 0.7 mph NW1.1 kmh NW 3.8 mph6.1 kmh 30.01 in1016.3 mb 0.00 in0.0 mm 0.00 in0.0 mm 0.01 in0.3 mm
09:00 PM 68.5°F20.3°C 62.2°F16.8°C 80% Calm Calm 3.1 mph5.0 kmh 30.01 in1016.3 mb 0.00 in0.0 mm 0.00 in0.0 mm 0.01 in0.3 mm
09:05 PM 68.2°F20.1°C 61.8°F16.6°C 80% 0.7 mph W1.1 kmh W 2.2 mph3.5 kmh 30.01 in1016.3 mb 0.00 in0.0 mm 0.00 in0.0 mm 0.01 in0.3 mm
09:10 PM 68.0°F20.0°C 61.6°F16.4°C 80% 0.7 mph SW1.1 kmh SW 2.2 mph3.5 kmh 30.01 in1016.3 mb 0.00 in0.0 mm 0.00 in0.0 mm 0.01 in0.3 mm
09:15 PM 67.8°F19.9°C 61.8°F16.6°C 81% 1.6 mph SW2.6 kmh SW 2.2 mph3.5 kmh 30.02 in1016.6 mb 0.00 in0.0 mm 0.00 in0.0 mm 0.01 in0.3 mm
09:20 PM 67.6°F19.8°C 61.6°F16.4°C 81% 1.6 mph SSW2.6 kmh SSW 4.5 mph7.2 kmh 30.01 in1016.3 mb 0.00 in0.0 mm 0.00 in0.0 mm 0.01 in0.3 mm
09:25 PM 67.6°F19.8°C 61.6°F16.4°C 81% 1.6 mph SW2.6 kmh SW 4.5 mph7.2 kmh 30.01 in1016.3 mb 0.00 in0.0 mm 0.00 in0.0 mm 0.01 in0.3 mm
09:30 PM 67.5°F19.7°C 61.1°F16.2°C 80% 2.2 mph SSW3.5 kmh SSW 4.5 mph7.2 kmh 30.02 in1016.6 mb 0.00 in0.0 mm 0.00 in0.0 mm 0.01 in0.3 mm
09:35 PM 67.5°F19.7°C 61.5°F16.4°C 81% 3.1 mph S5.0 kmh S 4.5 mph7.2 kmh 30.02 in1016.6 mb 0.00 in0.0 mm 0.00 in0.0 mm 0.01 in0.3 mm
09:40 PM 67.3°F19.6°C 61.6°F16.4°C 82% 1.6 mph S2.6 kmh S 4.5 mph7.2 kmh 30.02 in1016.6 mb 0.00 in0.0 mm 0.00 in0.0 mm 0.01 in0.3 mm
09:45 PM 67.1°F19.5°C 61.4°F16.3°C 82% 3.1 mph S5.0 kmh S 3.8 mph6.1 kmh 30.02 in1016.6 mb 0.00 in0.0 mm 0.00 in0.0 mm 0.01 in0.3 mm
09:55 PM 66.7°F19.3°C 61.4°F16.3°C 83% 0.7 mph SSW1.1 kmh SSW 4.5 mph7.2 kmh 30.02 in1016.6 mb 0.00 in0.0 mm 0.00 in0.0 mm 0.01 in0.3 mm
10:00 PM 66.6°F19.2°C 61.3°F16.3°C 83% 0.7 mph SW1.1 kmh SW 2.2 mph3.5 kmh 30.02 in1016.6 mb 0.00 in0.0 mm 0.00 in0.0 mm 0.01 in0.3 mm
10:05 PM 66.4°F19.1°C 61.4°F16.3°C 84% 1.6 mph SW2.6 kmh SW 2.2 mph3.5 kmh 30.02 in1016.6 mb 0.00 in0.0 mm 0.00 in0.0 mm 0.01 in0.3 mm
10:10 PM 66.0°F18.9°C 61.4°F16.3°C 85% 1.6 mph NW2.6 kmh NW 2.2 mph3.5 kmh 30.01 in1016.3 mb 0.00 in0.0 mm 0.00 in0.0 mm 0.01 in0.3 mm
10:15 PM 65.5°F18.6°C 61.2°F16.2°C 86% 1.6 mph NW2.6 kmh NW 2.2 mph3.5 kmh 30.02 in1016.6 mb 0.00 in0.0 mm 0.00 in0.0 mm 0.01 in0.3 mm
10:20 PM 64.9°F18.3°C 61.0°F16.1°C 87% 1.6 mph NNW2.6 kmh NNW 2.2 mph3.5 kmh 30.01 in1016.3 mb 0.00 in0.0 mm 0.00 in0.0 mm 0.01 in0.3 mm
10:25 PM 64.4°F18.0°C 60.5°F15.8°C 87% 0.7 mph N1.1 kmh N 2.2 mph3.5 kmh 30.01 in1016.3 mb 0.00 in0.0 mm 0.00 in0.0 mm 0.01 in0.3 mm
10:30 PM 64.0°F17.8°C 60.4°F15.8°C 88% 2.2 mph NNW3.5 kmh NNW 3.1 mph5.0 kmh 30.02 in1016.6 mb 0.00 in0.0 mm 0.00 in0.0 mm 0.01 in0.3 mm
10:35 PM 63.7°F17.6°C 60.4°F15.8°C 89% 1.6 mph NNW2.6 kmh NNW 3.1 mph5.0 kmh 30.02 in1016.6 mb 0.00 in0.0 mm 0.00 in0.0 mm 0.01 in0.3 mm
10:40 PM 63.3°F17.4°C 60.0°F15.6°C 89% 0.7 mph N1.1 kmh N 3.1 mph5.0 kmh 30.02 in1016.6 mb 0.00 in0.0 mm 0.00 in0.0 mm 0.01 in0.3 mm
10:45 PM 63.0°F17.2°C 60.0°F15.6°C 90% Calm Calm 3.1 mph5.0 kmh 30.02 in1016.6 mb 0.00 in0.0 mm 0.00 in0.0 mm 0.01 in0.3 mm
10:50 PM 63.0°F17.2°C 60.3°F15.7°C 91% Calm Calm 1.6 mph2.6 kmh 30.01 in1016.3 mb 0.00 in0.0 mm 0.00 in0.0 mm 0.01 in0.3 mm
10:55 PM 63.0°F17.2°C 60.3°F15.7°C 91% Calm Calm 0.7 mph1.1 kmh 30.02 in1016.6 mb 0.00 in0.0 mm 0.00 in0.0 mm 0.01 in0.3 mm
11:00 PM 63.1°F17.3°C 60.5°F15.8°C 91% Calm Calm 0.7 mph1.1 kmh 30.01 in1016.3 mb 0.00 in0.0 mm 0.00 in0.0 mm 0.01 in0.3 mm
11:05 PM 63.1°F17.3°C 60.5°F15.8°C 91% Calm Calm -- 30.02 in1016.6 mb 0.00 in0.0 mm 0.00 in0.0 mm 0.01 in0.3 mm
11:10 PM 63.5°F17.5°C 60.8°F16.0°C 91% 1.6 mph S2.6 kmh S 3.1 mph5.0 kmh 30.02 in1016.6 mb 0.00 in0.0 mm 0.00 in0.0 mm 0.01 in0.3 mm
11:20 PM 63.5°F17.5°C 60.8°F16.0°C 91% Calm Calm 3.1 mph5.0 kmh 30.01 in1016.3 mb 0.00 in0.0 mm 0.00 in0.0 mm 0.01 in0.3 mm
11:25 PM 63.3°F17.4°C 60.7°F15.9°C 91% Calm Calm 2.2 mph3.5 kmh 30.02 in1016.6 mb 0.00 in0.0 mm 0.00 in0.0 mm 0.01 in0.3 mm
11:30 PM 63.1°F17.3°C 60.5°F15.8°C 91% 2.2 mph WNW3.5 kmh WNW 3.1 mph5.0 kmh 30.02 in1016.6 mb 0.00 in0.0 mm 0.00 in0.0 mm 0.01 in0.3 mm
11:35 PM 63.1°F17.3°C 60.5°F15.8°C 91% 0.7 mph W1.1 kmh W 3.1 mph5.0 kmh 30.02 in1016.6 mb 0.00 in0.0 mm 0.00 in0.0 mm 0.01 in0.3 mm
11:40 PM 63.1°F17.3°C 60.8°F16.0°C 92% 1.6 mph WNW2.6 kmh WNW 3.1 mph5.0 kmh 30.02 in1016.6 mb 0.00 in0.0 mm 0.00 in0.0 mm 0.01 in0.3 mm
11:45 PM 63.1°F17.3°C 60.8°F16.0°C 92% 1.6 mph N2.6 kmh N 3.1 mph5.0 kmh 30.02 in1016.6 mb 0.00 in0.0 mm 0.00 in0.0 mm 0.01 in0.3 mm
11:50 PM 63.3°F17.4°C 61.0°F16.1°C 92% 1.6 mph E2.6 kmh E 3.1 mph5.0 kmh 30.02 in1016.6 mb 0.00 in0.0 mm 0.00 in0.0 mm 0.01 in0.3 mm
11:55 PM 63.1°F17.3°C 60.8°F16.0°C 92% 2.2 mph E3.5 kmh E 3.1 mph5.0 kmh 30.02 in1016.6 mb 0.00 in0.0 mm 0.00 in0.0 mm 0.01 in0.3 mm